Schedule Details

Flight Number: CPX257
Departure: Grantley Adams International Airport (TBPB) at N/A
Arrival: Miami International Airport (KMIA) at N/A
Route: BGI UA555 ILURI MEEGL Y421 HAGIT Y308 FOWEE FLIPR6


Current Weather Information
TBPB 192300Z 09021KT 9999 -SHRA BKN016 BKN038 24/21 Q1015 NOSIG
KMIA 192253Z 10011KT 10SM SCT027 26/21 A3013 RMK AO2 SLP202 T02560206